Time;durP1;ratioP1;P1;durP2;ratioP2;P2;SDS_P1;SDS_P2;PMS_P1;PMS_P2;Temp;Humidity;BMP_temperature;BMP_pressure;BME280_temperature;BME280_humidity;BME280_pressure;Samples;Min_cycle;Max_cycle;Signal;HPM_P1;HPM_P2
2022/02/09 00:00:26;;;;;;;1.77;1.67;;;;;;;;;;5117676;28;20288;-84
2022/02/09 00:03:07;;;;;;;1.80;1.70;;;;;;;;;;5117373;28;20206;-85
2022/02/09 00:05:47;;;;;;;2.80;2.60;;;;;;;;;;5116955;28;20304;-83
2022/02/09 00:08:15;;;;;;;3.10;2.90;;;;;;;;;;5117158;28;20267;-85
2022/02/09 00:10:46;;;;;;;3.40;3.10;;;;;;;;;;5097945;28;20299;-84
2022/02/09 00:16:03;;;;;;;2.40;2.20;;;;;;;;;;5094271;28;20246;-85
2022/02/09 00:18:37;;;;;;;1.73;1.63;;;;;;;;;;5096781;28;20211;-84
2022/02/09 00:29:40;;;;;;;1.55;1.45;;;;;;;;;;5096234;28;20227;-84
2022/02/09 00:41:01;;;;;;;2.17;1.92;;;;;;;;;;5095954;28;20223;-85
2022/02/09 00:43:50;;;;;;;1.38;1.30;;;;;;;;;;5096580;28;20249;-85
2022/02/09 01:11:16;;;;;;;2.17;1.85;;;;;;;;;;5070224;28;20242;-85
2022/02/09 01:39:10;;;;;;;2.70;2.50;;;;;;;;;;5111008;28;20203;-85
2022/02/09 01:55:46;;;;;;;2.00;1.90;;;;;;;;;;5095366;28;20223;-84
2022/02/09 01:58:13;;;;;;;2.45;2.28;;;;;;;;;;5095876;28;20236;-85
2022/02/09 02:00:43;;;;;;;2.08;1.98;;;;;;;;;;5095598;28;20204;-85
2022/02/09 02:03:11;;;;;;;1.98;1.88;;;;;;;;;;5095883;28;20204;-85
2022/02/09 02:05:38;;;;;;;4.70;2.75;;;;;;;;;;5095989;28;20235;-85
2022/02/09 02:08:08;;;;;;;2.25;2.15;;;;;;;;;;5096018;28;20302;-85
2022/02/09 02:10:45;;;;;;;2.47;2.28;;;;;;;;;;5095540;28;20207;-84
2022/02/09 02:13:24;;;;;;;2.50;2.30;;;;;;;;;;5095998;28;20204;-84
2022/02/09 02:18:39;;;;;;;1.88;1.70;;;;;;;;;;5095136;28;20253;-85
2022/02/09 02:21:23;;;;;;;3.00;2.70;;;;;;;;;;5095601;28;20204;-85
2022/02/09 02:26:55;;;;;;;1.98;1.88;;;;;;;;;;5084582;28;20250;-84
2022/02/09 02:32:33;;;;;;;2.70;2.50;;;;;;;;;;5113297;22;20232;-80
2022/02/09 02:35:35;;;;;;;2.20;2.10;;;;;;;;;;5053634;28;20297;-80
2022/02/09 02:38:32;;;;;;;2.30;2.10;;;;;;;;;;5053593;28;20363;-81
2022/02/09 02:46:56;;;;;;;3.03;2.63;;;;;;;;;;5014691;28;20764;-81
2022/02/09 02:58:05;;;;;;;2.33;2.17;;;;;;;;;;5018086;28;20206;-80
2022/02/09 03:09:04;;;;;;;1.70;1.60;;;;;;;;;;5020399;28;20291;-82
2022/02/09 03:14:18;;;;;;;1.80;1.70;;;;;;;;;;5020409;28;20721;-80
2022/02/09 03:16:53;;;;;;;2.05;1.90;;;;;;;;;;5038902;28;20186;-80
2022/02/09 03:19:40;;;;;;;1.27;1.27;;;;;;;;;;5048052;28;20228;-79
2022/02/09 03:22:18;;;;;;;1.98;1.88;;;;;;;;;;5047737;28;20233;-78
2022/02/09 03:25:16;;;;;;;2.15;2.05;;;;;;;;;;5050550;28;20588;-79
2022/02/09 03:30:55;;;;;;;2.10;2.00;;;;;;;;;;5043986;28;20205;-79
2022/02/09 03:31:10;;;;;;;2.30;2.10;;;;;;;;;;5045684;28;20234;-81
2022/02/09 03:42:34;;;;;;;2.03;1.92;;;;;;;;;;5019655;28;20221;-80
2022/02/09 03:45:45;;;;;;;1.85;1.75;;;;;;;;;;5021596;28;20552;-80
2022/02/09 03:48:26;;;;;;;2.08;1.98;;;;;;;;;;5029566;28;20282;-79
2022/02/09 03:53:58;;;;;;;2.10;2.00;;;;;;;;;;5123861;27;20552;-79
2022/02/09 03:56:29;;;;;;;2.08;1.98;;;;;;;;;;5125277;28;20199;-79
2022/02/09 03:58:56;;;;;;;1.83;1.73;;;;;;;;;;5125394;28;20199;-79
2022/02/09 04:01:28;;;;;;;2.10;1.98;;;;;;;;;;5112974;28;20660;-80
2022/02/09 04:03:55;;;;;;;2.22;2.03;;;;;;;;;;5111797;28;20200;-79
2022/02/09 04:06:22;;;;;;;2.28;2.08;;;;;;;;;;5111587;28;20199;-80
2022/02/09 04:08:55;;;;;;;2.40;2.20;;;;;;;;;;5109618;28;20215;-79
2022/02/09 04:11:27;;;;;;;2.58;2.38;;;;;;;;;;5092010;28;20204;-80
2022/02/09 04:14:04;;;;;;;2.25;2.15;;;;;;;;;;5091963;28;20299;-80
2022/02/09 04:16:50;;;;;;;2.10;2.00;;;;;;;;;;5091249;28;20218;-80
2022/02/09 04:19:27;;;;;;;2.00;1.90;;;;;;;;;;5091236;28;20299;-80
2022/02/09 04:38:40;;;;;;;2.03;1.92;;;;;;;;;;5091180;28;20703;-80
2022/02/09 04:41:23;;;;;;;1.65;1.55;;;;;;;;;;5091323;28;20203;-80
2022/02/09 04:44:05;;;;;;;2.30;2.10;;;;;;;;;;5090713;28;20208;-80
2022/02/09 04:47:02;;;;;;;2.03;1.92;;;;;;;;;;5090486;28;20204;-80
2022/02/09 04:49:54;;;;;;;2.80;2.60;;;;;;;;;;5090736;28;20204;-80
2022/02/09 04:52:34;;;;;;;2.00;1.90;;;;;;;;;;5090364;28;20680;-80
2022/02/09 04:55:19;;;;;;;1.80;1.70;;;;;;;;;;5090545;28;20290;-80
2022/02/09 04:57:51;;;;;;;2.05;1.95;;;;;;;;;;5090619;28;20210;-80
2022/02/09 05:00:28;;;;;;;1.65;1.55;;;;;;;;;;5090775;28;20291;-80
2022/02/09 05:17:48;;;;;;;2.00;1.90;;;;;;;;;;5063251;28;20783;-80
2022/02/09 05:25:45;;;;;;;2.30;2.00;;;;;;;;;;5076645;28;20331;-79
2022/02/09 05:28:15;;;;;;;1.80;1.70;;;;;;;;;;5076534;28;20205;-80
2022/02/09 05:30:48;;;;;;;1.80;1.70;;;;;;;;;;5076024;28;20291;-80
2022/02/09 05:33:16;;;;;;;1.70;1.60;;;;;;;;;;5076147;28;20231;-80
2022/02/09 05:35:43;;;;;;;1.83;1.73;;;;;;;;;;5076305;28;20207;-80
2022/02/09 05:38:11;;;;;;;1.65;1.55;;;;;;;;;;5076105;28;20205;-80
2022/02/09 05:40:39;;;;;;;1.90;1.67;;;;;;;;;;5076281;28;20208;-80
2022/02/09 05:43:07;;;;;;;2.10;2.00;;;;;;;;;;5076011;28;20223;-80
2022/02/09 05:45:48;;;;;;;1.88;1.77;;;;;;;;;;5075871;28;20258;-81
2022/02/09 05:49:00;;;;;;;2.58;2.38;;;;;;;;;;5078624;28;20289;-82
2022/02/09 05:51:19;;;;;;;1.80;1.70;;;;;;;;;;5078463;28;20341;-82
2022/02/09 05:54:01;;;;;;;1.48;1.38;;;;;;;;;;5079153;28;20715;-82
2022/02/09 05:56:42;;;;;;;1.80;1.70;;;;;;;;;;5078454;28;20197;-80
2022/02/09 05:59:28;;;;;;;2.00;1.90;;;;;;;;;;5078536;28;20250;-81
2022/02/09 06:01:55;;;;;;;2.00;1.80;;;;;;;;;;5078244;28;20261;-81
2022/02/09 06:04:24;;;;;;;2.03;1.92;;;;;;;;;;5078309;28;20200;-80
2022/02/09 06:06:51;;;;;;;1.75;1.65;;;;;;;;;;5078215;28;20200;-82
2022/02/09 06:09:19;;;;;;;1.90;1.80;;;;;;;;;;5078296;28;20205;-80
2022/02/09 06:11:50;;;;;;;2.03;1.92;;;;;;;;;;5077743;28;20224;-82
2022/02/09 06:14:41;;;;;;;1.80;1.70;;;;;;;;;;5077765;28;20228;-82
2022/02/09 06:19:55;;;;;;;2.15;2.05;;;;;;;;;;5078080;28;20203;-82
2022/02/09 06:22:24;;;;;;;1.92;1.83;;;;;;;;;;5078158;28;20708;-81
2022/02/09 06:24:51;;;;;;;2.35;2.15;;;;;;;;;;5078780;28;20201;-82
2022/02/09 06:27:19;;;;;;;2.20;2.00;;;;;;;;;;5077198;28;20207;-81
2022/02/09 06:29:47;;;;;;;1.60;1.50;;;;;;;;;;5078413;28;20196;-81
2022/02/09 06:32:16;;;;;;;1.98;1.77;;;;;;;;;;5077583;28;20217;-82
2022/02/09 06:34:44;;;;;;;1.60;1.50;;;;;;;;;;5077944;28;20217;-80
2022/02/09 06:37:18;;;;;;;2.13;2.00;;;;;;;;;;5078002;28;20204;-81
2022/02/09 06:39:49;;;;;;;1.90;1.80;;;;;;;;;;5077409;28;20212;-82
2022/02/09 06:42:22;;;;;;;1.40;1.30;;;;;;;;;;5076708;28;20224;-81
2022/02/09 06:44:50;;;;;;;1.50;1.40;;;;;;;;;;5083981;28;20255;-81
2022/02/09 06:47:21;;;;;;;1.40;1.30;;;;;;;;;;5091117;28;20717;-81
2022/02/09 06:49:56;;;;;;;2.03;1.88;;;;;;;;;;5088683;28;20630;-82
2022/02/09 06:52:25;;;;;;;2.38;2.10;;;;;;;;;;5077202;28;20421;-82
2022/02/09 06:55:09;;;;;;;1.63;1.52;;;;;;;;;;5076272;28;20599;-82
2022/02/09 06:57:57;;;;;;;1.65;1.55;;;;;;;;;;5080614;28;20204;-83
2022/02/09 07:00:25;;;;;;;1.65;1.55;;;;;;;;;;5091260;28;20665;-83
2022/02/09 07:02:53;;;;;;;1.90;1.80;;;;;;;;;;5089232;28;20237;-82
2022/02/09 07:05:20;;;;;;;1.52;1.42;;;;;;;;;;5076106;28;20215;-83
2022/02/09 07:07:49;;;;;;;1.48;1.38;;;;;;;;;;5076930;28;20239;-84
2022/02/09 07:10:16;;;;;;;2.13;1.98;;;;;;;;;;5088696;28;20211;-83
2022/02/09 07:12:44;;;;;;;1.70;1.60;;;;;;;;;;5083689;28;20228;-82
2022/02/09 07:15:15;;;;;;;1.60;1.50;;;;;;;;;;5081478;28;20436;-82
2022/02/09 07:17:44;;;;;;;1.83;1.73;;;;;;;;;;5088829;28;20295;-83
2022/02/09 07:20:18;;;;;;;1.60;1.50;;;;;;;;;;5076360;28;20268;-83
2022/02/09 07:22:48;;;;;;;1.88;1.77;;;;;;;;;;5075508;28;20675;-82
2022/02/09 07:25:19;;;;;;;2.05;1.95;;;;;;;;;;5075787;28;20201;-81
2022/02/09 07:27:51;;;;;;;1.80;1.70;;;;;;;;;;5075643;28;20208;-82
2022/02/09 07:30:22;;;;;;;2.13;2.03;;;;;;;;;;5076237;28;20236;-81
2022/02/09 07:32:51;;;;;;;2.20;2.00;;;;;;;;;;5076756;28;20704;-83
2022/02/09 07:35:18;;;;;;;2.30;2.10;;;;;;;;;;5075991;28;20229;-82
2022/02/09 07:37:45;;;;;;;1.50;1.40;;;;;;;;;;5075644;28;20215;-82
2022/02/09 07:40:15;;;;;;;1.58;1.48;;;;;;;;;;5080160;28;20216;-81
2022/02/09 07:42:47;;;;;;;1.50;1.40;;;;;;;;;;5076856;28;20224;-83
2022/02/09 07:45:44;;;;;;;1.83;1.73;;;;;;;;;;5081297;28;20675;-83
2022/02/09 07:48:27;;;;;;;1.70;1.60;;;;;;;;;;5097024;28;20201;-82
2022/02/09 07:51:26;;;;;;;1.70;1.60;;;;;;;;;;5097465;28;20213;-83
2022/02/09 07:54:00;;;;;;;1.50;1.40;;;;;;;;;;5097058;28;20220;-84
2022/02/09 07:56:29;;;;;;;1.20;1.20;;;;;;;;;;5097856;28;20204;-83
2022/02/09 07:58:57;;;;;;;1.20;1.20;;;;;;;;;;5097572;28;20212;-84
2022/02/09 08:01:25;;;;;;;1.65;1.55;;;;;;;;;;5096842;28;20204;-83
2022/02/09 08:03:53;;;;;;;1.42;1.33;;;;;;;;;;5097131;28;20692;-83
2022/02/09 08:06:24;;;;;;;3.65;1.98;;;;;;;;;;5097710;28;20210;-82
2022/02/09 08:08:52;;;;;;;1.60;1.50;;;;;;;;;;5096894;28;20235;-83
2022/02/09 08:11:24;;;;;;;1.92;1.83;;;;;;;;;;5097015;28;20668;-83
2022/02/09 08:27:41;;;;;;;1.85;1.75;;;;;;;;;;5076888;28;20262;-84
2022/02/09 08:30:32;;;;;;;1.88;1.77;;;;;;;;;;5075498;28;20209;-84
2022/02/09 08:33:06;;;;;;;4.47;1.73;;;;;;;;;;5075680;28;20225;-85
2022/02/09 08:35:34;;;;;;;3.08;1.40;;;;;;;;;;5076039;28;20251;-84
2022/02/09 08:38:02;;;;;;;1.52;1.45;;;;;;;;;;5076051;28;20208;-84
2022/02/09 08:40:30;;;;;;;1.85;1.75;;;;;;;;;;5082439;28;20354;-85
2022/02/09 08:42:59;;;;;;;1.90;1.77;;;;;;;;;;5079124;28;20255;-85
2022/02/09 08:45:28;;;;;;;1.50;1.40;;;;;;;;;;5079433;28;20213;-83
2022/02/09 08:47:56;;;;;;;1.10;1.10;;;;;;;;;;5098336;28;20687;-84
2022/02/09 08:50:24;;;;;;;1.60;1.50;;;;;;;;;;5098441;28;20295;-83
2022/02/09 08:52:52;;;;;;;1.95;1.85;;;;;;;;;;5098107;28;20235;-84
2022/02/09 08:55:19;;;;;;;1.60;1.50;;;;;;;;;;5097714;28;20224;-85
2022/02/09 08:57:47;;;;;;;1.83;1.73;;;;;;;;;;5097827;28;20212;-83
2022/02/09 09:00:21;;;;;;;1.52;1.42;;;;;;;;;;5098468;28;20216;-84
2022/02/09 09:03:03;;;;;;;1.83;1.73;;;;;;;;;;5098515;28;20277;-84
2022/02/09 09:05:40;;;;;;;1.58;1.48;;;;;;;;;;5097957;28;20200;-85
2022/02/09 09:08:20;;;;;;;1.77;1.67;;;;;;;;;;5094489;28;20208;-84
2022/02/09 09:11:04;;;;;;;2.00;1.90;;;;;;;;;;5096363;28;20272;-85
2022/02/09 09:25:10;;;;;;;1.70;1.60;;;;;;;;;;5072843;28;20592;-84
2022/02/09 09:58:50;;;;;;;2.25;2.10;;;;;;;;;;5077919;28;20210;-83
2022/02/09 10:01:37;;;;;;;1.77;1.67;;;;;;;;;;5092812;28;20296;-84
2022/02/09 10:04:15;;;;;;;2.22;2.05;;;;;;;;;;5097595;28;20208;-84
2022/02/09 10:32:47;;;;;;;2.35;2.15;;;;;;;;;;5080083;28;20282;-83
2022/02/09 10:35:26;;;;;;;2.10;1.90;;;;;;;;;;5090094;28;20220;-82
2022/02/09 10:37:55;;;;;;;1.83;1.73;;;;;;;;;;5098878;28;20204;-84
2022/02/09 10:40:39;;;;;;;1.90;1.80;;;;;;;;;;5085484;28;20205;-82
2022/02/09 10:43:23;;;;;;;2.15;1.67;;;;;;;;;;5079762;28;20220;-83
2022/02/09 10:45:52;;;;;;;1.73;1.63;;;;;;;;;;5083095;28;20207;-84
2022/02/09 10:48:34;;;;;;;1.77;1.67;;;;;;;;;;5096270;28;20205;-84
2022/02/09 10:51:21;;;;;;;1.98;1.83;;;;;;;;;;5095827;28;20253;-84
2022/02/09 10:54:05;;;;;;;1.90;1.60;;;;;;;;;;5080181;28;20208;-85
2022/02/09 10:56:34;;;;;;;2.05;1.92;;;;;;;;;;5092322;28;20224;-84
2022/02/09 10:59:08;;;;;;;1.70;1.60;;;;;;;;;;5078202;28;20205;-83
2022/02/09 11:01:35;;;;;;;2.03;1.92;;;;;;;;;;5075886;28;20728;-82
2022/02/09 11:04:04;;;;;;;3.33;2.05;;;;;;;;;;5095113;28;20226;-84
2022/02/09 11:06:35;;;;;;;1.75;1.65;;;;;;;;;;5097168;28;20266;-84
2022/02/09 11:09:05;;;;;;;1.70;1.60;;;;;;;;;;5091412;28;20223;-85
2022/02/09 11:11:32;;;;;;;1.48;1.38;;;;;;;;;;5097273;28;20571;-85
2022/02/09 11:14:02;;;;;;;1.98;1.83;;;;;;;;;;5095423;28;20205;-82
2022/02/09 11:16:30;;;;;;;1.50;1.40;;;;;;;;;;5081276;28;20221;-82
2022/02/09 11:18:58;;;;;;;1.75;1.65;;;;;;;;;;5075094;28;20296;-82
2022/02/09 11:21:32;;;;;;;1.75;1.65;;;;;;;;;;5075954;28;20578;-82
2022/02/09 11:24:06;;;;;;;1.88;1.77;;;;;;;;;;5076458;28;20224;-82
2022/02/09 11:26:42;;;;;;;1.70;1.60;;;;;;;;;;5077754;28;20258;-82
2022/02/09 11:29:41;;;;;;;1.48;1.38;;;;;;;;;;5092825;28;20227;-82
2022/02/09 11:32:23;;;;;;;1.77;1.67;;;;;;;;;;5093610;28;20224;-83
2022/02/09 11:35:23;;;;;;;2.17;2.08;;;;;;;;;;5094608;28;20192;-83
2022/02/09 11:38:05;;;;;;;2.05;1.85;;;;;;;;;;5094141;28;20188;-84
2022/02/09 11:40:39;;;;;;;2.88;2.47;;;;;;;;;;5077261;28;20200;-84
2022/02/09 11:44:11;;;;;;;2.08;1.98;;;;;;;;;;5075638;28;20220;-84
2022/02/09 11:47:02;;;;;;;3.00;2.67;;;;;;;;;;5054023;28;20263;-83
2022/02/09 11:49:59;;;;;;;2.45;2.25;;;;;;;;;;5074341;28;20292;-83
2022/02/09 11:58:51;;;;;;;2.15;2.05;;;;;;;;;;5057057;28;20781;-87
2022/02/09 12:01:49;;;;;;;2.78;2.58;;;;;;;;;;5055673;28;20572;-87
2022/02/09 12:10:23;;;;;;;2.53;2.33;;;;;;;;;;5041201;28;20205;-86
2022/02/09 12:13:03;;;;;;;2.42;2.22;;;;;;;;;;5036615;28;20202;-87
2022/02/09 12:18:56;;;;;;;1.75;1.60;;;;;;;;;;5038033;28;20268;-88
2022/02/09 12:21:38;;;;;;;1.67;1.58;;;;;;;;;;5040599;28;20202;-88
2022/02/09 12:24:29;;;;;;;1.95;1.70;;;;;;;;;;5038873;28;20651;-87
2022/02/09 12:27:03;;;;;;;1.85;1.75;;;;;;;;;;5039721;28;20202;-87
2022/02/09 12:29:33;;;;;;;2.80;2.42;;;;;;;;;;5039106;28;20569;-87
2022/02/09 12:32:03;;;;;;;2.05;1.95;;;;;;;;;;5038973;28;20211;-88
2022/02/09 12:34:30;;;;;;;1.52;1.42;;;;;;;;;;5039010;28;20224;-88
2022/02/09 12:37:12;;;;;;;1.77;1.67;;;;;;;;;;5039374;28;20218;-88
2022/02/09 12:39:48;;;;;;;2.35;2.15;;;;;;;;;;5048768;28;20251;-87
2022/02/09 12:42:15;;;;;;;1.80;1.70;;;;;;;;;;5058098;28;20280;-87
2022/02/09 12:44:43;;;;;;;1.67;1.45;;;;;;;;;;5059087;28;20592;-88
2022/02/09 12:47:10;;;;;;;1.60;1.50;;;;;;;;;;5058486;28;20198;-87
2022/02/09 12:49:38;;;;;;;1.98;1.88;;;;;;;;;;5057907;28;20206;-87
2022/02/09 12:52:09;;;;;;;2.00;1.90;;;;;;;;;;5058727;28;20206;-88
2022/02/09 12:54:36;;;;;;;1.95;1.85;;;;;;;;;;5058131;28;20785;-86
2022/02/09 12:57:04;;;;;;;1.92;1.83;;;;;;;;;;5058512;28;20282;-87
2022/02/09 12:59:31;;;;;;;1.65;1.55;;;;;;;;;;5046648;22;20230;-89
2022/02/09 13:01:59;;;;;;;2.25;2.05;;;;;;;;;;5035796;28;20202;-87
2022/02/09 13:04:33;;;;;;;2.10;2.00;;;;;;;;;;5035362;28;20202;-89
2022/02/09 13:07:02;;;;;;;1.73;1.52;;;;;;;;;;5036223;28;20205;-89
2022/02/09 13:09:30;;;;;;;2.25;2.13;;;;;;;;;;5018209;28;20229;-89
2022/02/09 13:11:58;;;;;;;1.73;1.63;;;;;;;;;;5016314;28;20202;-88
2022/02/09 13:14:31;;;;;;;1.05;1.05;;;;;;;;;;5016121;28;20202;-89
2022/02/09 13:17:15;;;;;;;1.75;1.65;;;;;;;;;;5016520;28;20215;-88
2022/02/09 13:22:57;;;;;;;1.83;1.73;;;;;;;;;;4995815;28;20281;-89
2022/02/09 13:25:46;;;;;;;1.88;1.77;;;;;;;;;;5016070;28;20194;-88
2022/02/09 13:52:14;;;;;;;1.50;1.40;;;;;;;;;;5006699;28;20255;-89
2022/02/09 14:17:17;;;;;;;2.47;2.20;;;;;;;;;;5014482;28;20277;-88
2022/02/09 14:47:56;;;;;;;2.53;2.33;;;;;;;;;;5014080;28;20190;-88
2022/02/09 14:51:11;;;;;;;2.10;2.00;;;;;;;;;;5013827;28;20203;-88
2022/02/09 14:53:27;;;;;;;2.70;2.50;;;;;;;;;;5013772;28;20202;-89
2022/02/09 14:56:03;;;;;;;1.80;1.70;;;;;;;;;;5014504;28;20191;-89
2022/02/09 14:58:33;;;;;;;2.10;2.00;;;;;;;;;;5014363;28;20683;-89
2022/02/09 15:01:06;;;;;;;2.13;2.03;;;;;;;;;;5013838;28;20643;-88
2022/02/09 15:06:42;;;;;;;1.73;1.63;;;;;;;;;;5012749;28;20687;-88
2022/02/09 15:09:14;;;;;;;2.47;2.22;;;;;;;;;;5014075;28;20425;-89
2022/02/09 15:11:54;;;;;;;2.35;2.15;;;;;;;;;;5013551;28;20243;-88
2022/02/09 15:14:28;;;;;;;1.70;1.60;;;;;;;;;;5014299;28;20195;-88
2022/02/09 15:17:06;;;;;;;2.38;2.28;;;;;;;;;;5013615;28;20183;-89
2022/02/09 15:20:05;;;;;;;2.05;1.95;;;;;;;;;;5013881;28;20632;-87
2022/02/09 15:22:35;;;;;;;2.70;2.50;;;;;;;;;;5013190;28;20203;-88
2022/02/09 15:25:10;;;;;;;2.72;2.53;;;;;;;;;;5013950;28;20202;-89
2022/02/09 15:27:38;;;;;;;2.60;2.03;;;;;;;;;;5013793;28;20273;-88
2022/02/09 15:30:08;;;;;;;2.28;2.13;;;;;;;;;;5013549;28;20206;-88
2022/02/09 15:32:39;;;;;;;2.90;2.63;;;;;;;;;;5012974;28;20210;-88
2022/02/09 15:35:13;;;;;;;2.90;2.72;;;;;;;;;;5013908;28;20183;-88
2022/02/09 15:37:47;;;;;;;2.13;2.03;;;;;;;;;;5013622;28;20236;-89
2022/02/09 15:40:27;;;;;;;2.90;2.70;;;;;;;;;;5014003;28;20190;-88
2022/02/09 15:43:09;;;;;;;2.60;2.40;;;;;;;;;;5013581;28;20201;-87
2022/02/09 15:56:59;;;;;;;2.40;2.20;;;;;;;;;;5012750;28;20186;-88
2022/02/09 15:59:41;;;;;;;2.95;2.40;;;;;;;;;;5012781;28;20226;-89
2022/02/09 16:10:35;;;;;;;2.70;2.50;;;;;;;;;;5013267;28;20187;-89
2022/02/09 16:24:24;;;;;;;5.55;4.75;;;;;;;;;;5012693;28;20194;-88
2022/02/09 16:36:18;;;;;;;2.92;2.63;;;;;;;;;;5013170;28;20230;-88
2022/02/09 16:38:35;;;;;;;1.92;1.83;;;;;;;;;;5012517;28;20692;-90
2022/02/09 16:46:37;;;;;;;2.22;2.13;;;;;;;;;;5012810;28;20201;-90
2022/02/09 16:49:08;;;;;;;1.70;1.60;;;;;;;;;;5012823;28;20223;-89
2022/02/09 16:51:45;;;;;;;2.53;1.85;;;;;;;;;;5013054;28;20238;-89
2022/02/09 16:54:27;;;;;;;1.52;1.42;;;;;;;;;;5012821;28;20244;-89
2022/02/09 16:57:20;;;;;;;4.22;2.67;;;;;;;;;;5013015;28;20238;-88
2022/02/09 17:19:01;;;;;;;1.60;1.25;;;;;;;;;;5015982;28;20731;-89
2022/02/09 17:21:30;;;;;;;1.63;1.52;;;;;;;;;;5015983;28;20213;-87
2022/02/09 17:24:01;;;;;;;1.83;1.73;;;;;;;;;;5015497;28;20580;-89
2022/02/09 17:26:29;;;;;;;2.22;1.50;;;;;;;;;;5015917;28;20183;-89
2022/02/09 17:29:01;;;;;;;1.48;1.38;;;;;;;;;;5016125;28;20233;-89
2022/02/09 17:31:38;;;;;;;2.83;1.90;;;;;;;;;;5015862;28;20199;-88
2022/02/09 17:34:19;;;;;;;1.60;1.50;;;;;;;;;;5016030;28;20187;-88
2022/02/09 17:37:03;;;;;;;2.90;2.60;;;;;;;;;;5015533;28;20199;-89
2022/02/09 17:53:24;;;;;;;1.58;1.30;;;;;;;;;;5015364;28;20182;-88
2022/02/09 17:55:57;;;;;;;2.88;1.45;;;;;;;;;;5015231;28;20256;-91
2022/02/09 17:58:28;;;;;;;1.55;1.45;;;;;;;;;;5014936;28;20242;-88
2022/02/09 18:00:56;;;;;;;1.15;1.15;;;;;;;;;;4996211;28;20553;-89
2022/02/09 18:03:25;;;;;;;1.67;1.20;;;;;;;;;;4995864;28;20211;-90
2022/02/09 18:05:55;;;;;;;1.50;1.40;;;;;;;;;;4995549;28;20298;-89
2022/02/09 18:08:28;;;;;;;1.67;1.55;;;;;;;;;;4995842;28;20231;-89
2022/02/09 18:11:15;;;;;;;1.30;1.20;;;;;;;;;;4995625;28;20184;-90
2022/02/09 18:14:11;;;;;;;1.50;1.30;;;;;;;;;;4995595;28;20196;-88
2022/02/09 18:28:31;;;;;;;1.25;1.20;;;;;;;;;;4996137;28;20611;-87
2022/02/09 18:30:55;;;;;;;1.60;1.50;;;;;;;;;;5014113;28;20238;-89
2022/02/09 18:33:49;;;;;;;2.17;1.75;;;;;;;;;;5014349;28;20187;-89
2022/02/09 18:39:51;;;;;;;1.50;1.40;;;;;;;;;;5014591;28;20329;-89
2022/02/09 18:44:54;;;;;;;2.15;2.00;;;;;;;;;;4997396;28;20210;-88
2022/02/09 19:01:46;;;;;;;2.00;1.80;;;;;;;;;;5050518;28;20216;-85
2022/02/09 19:04:25;;;;;;;1.40;1.30;;;;;;;;;;5055236;28;20205;-84
2022/02/09 19:15:46;;;;;;;1.33;1.23;;;;;;;;;;5113640;28;20277;-84
2022/02/09 19:18:34;;;;;;;1.90;1.35;;;;;;;;;;5115711;28;20200;-85
2022/02/09 19:26:46;;;;;;;1.63;1.45;;;;;;;;;;5115593;28;20257;-84
2022/02/09 19:29:47;;;;;;;1.30;1.20;;;;;;;;;;5113293;28;20270;-85
2022/02/09 19:32:23;;;;;;;1.95;1.50;;;;;;;;;;5113932;28;20208;-85
2022/02/09 19:40:45;;;;;;;1.10;1.10;;;;;;;;;;5081560;28;20239;-83
2022/02/09 19:44:16;;;;;;;1.73;1.63;;;;;;;;;;5119501;28;20208;-84
2022/02/09 19:46:30;;;;;;;2.08;1.88;;;;;;;;;;5116766;28;20227;-85
2022/02/09 19:49:04;;;;;;;2.15;1.55;;;;;;;;;;5115092;28;20276;-85
2022/02/09 19:51:41;;;;;;;1.98;1.65;;;;;;;;;;5115825;28;20590;-84
2022/02/09 19:54:13;;;;;;;1.90;1.70;;;;;;;;;;5115916;28;20200;-84
2022/02/09 19:56:48;;;;;;;2.45;2.05;;;;;;;;;;5115108;28;20270;-84
2022/02/09 19:59:19;;;;;;;2.95;2.50;;;;;;;;;;5110964;28;20206;-85
2022/02/09 20:01:47;;;;;;;2.10;2.00;;;;;;;;;;5115373;28;20314;-88
2022/02/09 20:04:18;;;;;;;2.22;1.60;;;;;;;;;;5109639;28;20208;-87
2022/02/09 20:06:45;;;;;;;1.98;1.83;;;;;;;;;;5089500;28;20342;-88
2022/02/09 20:09:13;;;;;;;1.77;1.67;;;;;;;;;;5095972;28;20234;-88
2022/02/09 20:11:42;;;;;;;1.70;1.60;;;;;;;;;;5109587;28;20191;-88
2022/02/09 20:14:12;;;;;;;3.42;2.17;;;;;;;;;;5109500;28;20552;-87
2022/02/09 20:16:41;;;;;;;2.25;1.70;;;;;;;;;;5109307;28;20262;-88
2022/02/09 20:19:08;;;;;;;3.17;2.33;;;;;;;;;;5107931;28;20245;-88
2022/02/09 20:21:36;;;;;;;1.90;1.50;;;;;;;;;;5095478;28;20200;-88
2022/02/09 20:24:05;;;;;;;1.75;1.65;;;;;;;;;;5096176;28;20207;-87
2022/02/09 20:26:33;;;;;;;2.55;2.30;;;;;;;;;;5095908;28;20227;-87
2022/02/09 20:29:04;;;;;;;1.40;1.30;;;;;;;;;;5093513;28;20235;-88
2022/02/09 20:31:36;;;;;;;2.13;1.92;;;;;;;;;;5077077;28;20197;-88
2022/02/09 20:34:12;;;;;;;2.95;1.95;;;;;;;;;;5095557;28;20283;-88
2022/02/09 20:36:42;;;;;;;2.30;2.10;;;;;;;;;;5095297;28;20228;-87
2022/02/09 20:39:12;;;;;;;2.63;2.42;;;;;;;;;;5095464;28;20254;-87
2022/02/09 20:41:40;;;;;;;2.42;2.22;;;;;;;;;;5095215;28;20744;-86
2022/02/09 20:44:19;;;;;;;3.80;3.15;;;;;;;;;;5095302;28;20243;-87
2022/02/09 20:46:47;;;;;;;4.55;3.50;;;;;;;;;;5095341;28;20224;-86
2022/02/09 20:49:16;;;;;;;4.22;2.80;;;;;;;;;;5095152;28;20227;-87
2022/02/09 20:51:43;;;;;;;4.57;3.33;;;;;;;;;;5095146;28;20200;-87
2022/02/09 20:54:10;;;;;;;2.50;2.30;;;;;;;;;;5096710;28;20205;-86
2022/02/09 20:56:39;;;;;;;2.65;2.40;;;;;;;;;;5105279;28;20227;-88
2022/02/09 20:59:10;;;;;;;3.03;2.83;;;;;;;;;;5095697;28;20196;-87
2022/02/09 21:01:44;;;;;;;2.50;2.22;;;;;;;;;;5081300;28;20215;-87
2022/02/09 21:04:14;;;;;;;2.30;2.03;;;;;;;;;;5095287;28;20251;-88
2022/02/09 21:07:06;;;;;;;3.78;2.60;;;;;;;;;;5087065;28;20220;-88
2022/02/09 21:09:41;;;;;;;2.75;2.55;;;;;;;;;;5094570;28;20242;-87
2022/02/09 21:12:21;;;;;;;3.38;2.30;;;;;;;;;;5095002;28;20259;-88
2022/02/09 21:15:16;;;;;;;2.58;2.10;;;;;;;;;;5094923;28;20215;-88
2022/02/09 21:18:18;;;;;;;2.38;2.17;;;;;;;;;;5094744;28;20231;-88
2022/02/09 21:23:58;;;;;;;2.63;2.15;;;;;;;;;;5088897;28;20198;-87
2022/02/09 21:32:34;;;;;;;2.58;2.20;;;;;;;;;;5074252;28;20203;-86
2022/02/09 21:46:57;;;;;;;1.38;1.27;;;;;;;;;;5094245;28;20234;-88
2022/02/09 21:50:28;;;;;;;1.52;1.42;;;;;;;;;;5094557;28;20296;-87
2022/02/09 21:53:05;;;;;;;2.50;1.73;;;;;;;;;;5094311;28;20685;-87
2022/02/09 21:55:44;;;;;;;1.77;1.65;;;;;;;;;;5094221;28;20228;-87
2022/02/09 21:58:23;;;;;;;3.72;1.65;;;;;;;;;;5094098;28;20867;-87
2022/02/09 22:01:14;;;;;;;1.50;1.40;;;;;;;;;;5094476;28;20652;-87
2022/02/09 22:06:38;;;;;;;2.70;1.90;;;;;;;;;;5093980;28;20231;-88
2022/02/09 22:20:22;;;;;;;3.10;1.73;;;;;;;;;;5051297;28;20327;-89
2022/02/09 22:23:05;;;;;;;2.58;1.60;;;;;;;;;;5084780;28;20296;-88
2022/02/09 22:26:26;;;;;;;2.00;1.80;;;;;;;;;;5093708;28;20220;-88
2022/02/09 22:28:47;;;;;;;1.83;1.73;;;;;;;;;;5093166;28;20203;-88
2022/02/09 22:31:28;;;;;;;2.25;2.05;;;;;;;;;;5072838;28;20217;-88
2022/02/09 22:47:57;;;;;;;1.00;1.00;;;;;;;;;;5072950;28;20183;-88
2022/02/09 22:56:00;;;;;;;2.03;1.10;;;;;;;;;;5073112;28;20705;-88
2022/02/09 22:58:28;;;;;;;1.95;1.35;;;;;;;;;;5072897;28;20192;-89
2022/02/09 23:01:04;;;;;;;1.02;0.98;;;;;;;;;;5090906;28;20204;-88
2022/02/09 23:03:44;;;;;;;1.50;1.33;;;;;;;;;;5093158;28;20218;-88
2022/02/09 23:06:30;;;;;;;1.60;1.40;;;;;;;;;;5093585;28;20227;-88
2022/02/09 23:14:38;;;;;;;1.33;1.13;;;;;;;;;;5093125;28;20187;-88
2022/02/09 23:20:38;;;;;;;1.08;1.00;;;;;;;;;;5093350;28;20222;-89
2022/02/09 23:23:27;;;;;;;1.30;1.20;;;;;;;;;;5092822;28;20676;-88
2022/02/09 23:57:08;;;;;;;1.52;1.20;;;;;;;;;;5081903;27;1212654;-88
